Time;durP1;ratioP1;P1;durP2;ratioP2;P2;SDS_P1;SDS_P2;PMS_P1;PMS_P2;Temp;Humidity;BMP_temperature;BMP_pressure;BME280_temperature;BME280_humidity;BME280_pressure;Samples;Min_cycle;Max_cycle;Signal;HPM_P1;HPM_P2
2022/03/03 00:01:49;;;;;;;0.43;0.27;;;2.00;99.90;;;;;;5031328;28;20306;-83
2022/03/03 00:04:14;;;;;;;0.10;0.10;;;2.10;99.90;;;;;;5031278;28;20209;-83
2022/03/03 00:06:40;;;;;;;0.93;0.37;;;2.10;99.90;;;;;;5032311;28;20192;-83
2022/03/03 00:09:06;;;;;;;0.93;0.40;;;2.10;99.90;;;;;;5031115;28;20211;-83
2022/03/03 00:11:32;;;;;;;0.30;0.30;;;2.20;99.90;;;;;;5030892;28;20197;-84
2022/03/03 00:13:58;;;;;;;0.20;0.20;;;2.20;99.90;;;;;;5030442;28;20541;-84
2022/03/03 00:16:27;;;;;;;3.30;1.40;;;2.20;99.90;;;;;;5030786;28;20190;-84
2022/03/03 00:18:52;;;;;;;0.53;0.33;;;2.20;99.90;;;;;;5031289;28;20210;-84
2022/03/03 00:21:18;;;;;;;0.20;0.20;;;2.20;99.90;;;;;;5033544;28;20635;-84
2022/03/03 00:23:44;;;;;;;1.23;0.70;;;2.10;99.90;;;;;;5031778;28;20195;-83
2022/03/03 00:26:10;;;;;;;0.63;0.63;;;2.00;99.90;;;;;;5034643;28;20197;-83
2022/03/03 00:28:36;;;;;;;0.37;0.37;;;1.90;99.90;;;;;;5049445;28;20264;-83
2022/03/03 00:31:02;;;;;;;0.73;0.73;;;1.90;99.90;;;;;;5031207;28;20341;-84
2022/03/03 00:33:28;;;;;;;0.40;0.37;;;1.80;99.90;;;;;;5027142;28;20876;-83
2022/03/03 00:35:53;;;;;;;0.77;0.77;;;1.70;99.90;;;;;;5027894;28;20188;-84
2022/03/03 00:38:19;;;;;;;0.20;0.20;;;1.50;99.90;;;;;;5031345;28;20242;-84
2022/03/03 00:40:44;;;;;;;0.50;0.40;;;1.60;99.90;;;;;;5029635;28;20186;-83
2022/03/03 00:43:10;;;;;;;1.17;0.67;;;1.60;99.90;;;;;;5033358;28;20239;-84
2022/03/03 00:45:36;;;;;;;4.33;2.10;;;1.70;99.90;;;;;;5027458;28;20186;-83
2022/03/03 00:48:03;;;;;;;0.20;0.20;;;1.70;99.90;;;;;;5030815;28;20189;-84
2022/03/03 00:50:29;;;;;;;0.63;0.53;;;1.60;99.90;;;;;;5030144;28;20191;-83
2022/03/03 00:52:55;;;;;;;2.30;0.73;;;1.50;99.90;;;;;;5030710;28;20218;-83
2022/03/03 00:55:21;;;;;;;0.63;0.63;;;1.50;99.90;;;;;;5034103;28;20209;-84
2022/03/03 00:57:47;;;;;;;0.53;0.53;;;1.50;99.90;;;;;;5033109;28;20215;-84
2022/03/03 01:00:13;;;;;;;0.67;0.63;;;1.50;99.90;;;;;;5033818;28;20202;-84
2022/03/03 01:02:39;;;;;;;0.20;0.20;;;1.50;99.90;;;;;;5032448;28;20193;-84
2022/03/03 01:05:06;;;;;;;1.00;1.00;;;1.50;99.90;;;;;;5027324;28;20262;-83
2022/03/03 01:07:31;;;;;;;0.10;0.10;;;1.60;99.90;;;;;;5032241;28;20740;-83
2022/03/03 01:09:57;;;;;;;0.57;0.57;;;1.60;99.90;;;;;;5031805;28;20366;-83
2022/03/03 01:12:23;;;;;;;1.07;0.40;;;1.70;99.90;;;;;;5032997;28;20442;-83
2022/03/03 01:14:48;;;;;;;1.87;1.63;;;1.70;99.90;;;;;;5033617;28;20829;-84
2022/03/03 01:17:15;;;;;;;0.37;0.30;;;1.70;99.90;;;;;;5033750;28;20205;-84
2022/03/03 01:19:41;;;;;;;1.17;1.13;;;1.60;99.90;;;;;;5031692;28;20210;-84
2022/03/03 01:22:06;;;;;;;0.50;0.40;;;1.60;99.90;;;;;;5030962;28;20281;-84
2022/03/03 01:24:32;;;;;;;0.43;0.43;;;1.60;99.90;;;;;;5032846;28;20231;-83
2022/03/03 01:26:58;;;;;;;0.70;0.70;;;1.60;99.90;;;;;;5031117;28;20194;-84
2022/03/03 01:29:24;;;;;;;1.03;0.97;;;1.60;99.90;;;;;;5030884;28;20211;-83
2022/03/03 01:31:50;;;;;;;0.43;0.40;;;1.60;99.90;;;;;;5032992;28;20364;-84
2022/03/03 01:34:15;;;;;;;0.87;0.40;;;1.60;99.90;;;;;;5032590;28;20191;-83
2022/03/03 01:36:41;;;;;;;0.10;0.10;;;1.60;99.90;;;;;;5031576;28;20284;-84
2022/03/03 01:39:07;;;;;;;1.40;1.13;;;1.50;99.90;;;;;;5030775;28;20217;-84
2022/03/03 01:41:33;;;;;;;0.50;0.50;;;1.60;99.90;;;;;;5034931;28;20763;-83
2022/03/03 01:43:59;;;;;;;0.27;0.27;;;1.60;99.90;;;;;;5033693;28;20187;-83
2022/03/03 01:46:25;;;;;;;0.50;0.50;;;1.70;99.90;;;;;;5035592;28;20258;-84
2022/03/03 01:48:50;;;;;;;0.57;0.57;;;1.60;99.90;;;;;;5030552;28;20232;-83
2022/03/03 01:51:16;;;;;;;3.23;0.77;;;1.60;99.90;;;;;;5032108;28;20186;-84
2022/03/03 01:53:42;;;;;;;0.23;0.23;;;1.70;99.90;;;;;;5033001;28;20192;-84
2022/03/03 01:56:08;;;;;;;0.53;0.53;;;1.60;99.90;;;;;;5032109;28;20630;-84
2022/03/03 01:58:36;;;;;;;2.27;0.70;;;1.70;99.90;;;;;;5031138;28;20216;-83
2022/03/03 02:01:01;;;;;;;0.20;0.20;;;1.70;99.90;;;;;;5025432;28;20181;-84
2022/03/03 02:03:27;;;;;;;0.40;0.40;;;1.70;99.90;;;;;;5028387;28;20252;-84
2022/03/03 02:05:55;;;;;;;0.40;0.40;;;1.70;99.90;;;;;;5026976;28;20197;-84
2022/03/03 02:08:22;;;;;;;1.03;0.47;;;1.70;99.90;;;;;;5031405;28;20190;-84
2022/03/03 02:10:48;;;;;;;1.00;0.40;;;1.50;99.90;;;;;;5028704;28;20187;-84
2022/03/03 02:13:14;;;;;;;0.30;0.30;;;1.30;99.90;;;;;;5028834;28;20247;-84
2022/03/03 02:15:53;;;;;;;0.13;0.13;;;1.10;99.90;;;;;;5031312;28;20710;-84
2022/03/03 02:18:19;;;;;;;0.10;0.10;;;1.10;99.90;;;;;;5032979;28;20202;-83
2022/03/03 02:20:45;;;;;;;0.20;0.20;;;1.10;99.90;;;;;;5026479;28;20240;-84
2022/03/03 02:23:10;;;;;;;0.43;0.30;;;1.10;99.90;;;;;;5026180;28;20226;-84
2022/03/03 02:25:36;;;;;;;0.87;0.53;;;1.00;99.90;;;;;;5026619;28;20174;-84
2022/03/03 02:28:02;;;;;;;0.20;0.20;;;1.10;99.90;;;;;;5029793;28;20211;-84
2022/03/03 02:30:27;;;;;;;0.50;0.50;;;1.10;99.90;;;;;;5030855;28;20261;-83
2022/03/03 02:32:53;;;;;;;1.50;0.70;;;0.90;99.90;;;;;;5025439;28;20613;-84
2022/03/03 02:35:19;;;;;;;0.27;0.27;;;0.90;99.90;;;;;;5028602;28;20212;-84
2022/03/03 02:37:46;;;;;;;0.30;0.13;;;0.90;99.90;;;;;;5027794;28;20285;-84
2022/03/03 02:40:14;;;;;;;0.80;0.80;;;0.90;99.90;;;;;;5030135;28;20200;-84
2022/03/03 02:42:40;;;;;;;0.40;0.40;;;1.00;99.90;;;;;;5031792;28;20192;-83
2022/03/03 02:45:06;;;;;;;0.60;0.60;;;1.10;99.90;;;;;;5027282;28;20186;-83
2022/03/03 02:47:32;;;;;;;0.20;0.20;;;1.10;99.90;;;;;;5048491;28;20187;-83
2022/03/03 02:49:57;;;;;;;0.50;0.50;;;1.20;99.90;;;;;;5026542;28;20302;-84
2022/03/03 02:52:23;;;;;;;1.63;1.20;;;1.20;99.90;;;;;;5031760;28;20192;-84
2022/03/03 02:54:49;;;;;;;1.10;0.43;;;1.20;99.90;;;;;;5030529;28;20188;-83
2022/03/03 02:59:59;;;;;;;0.63;0.57;;;1.20;99.90;;;;;;5033376;28;20236;-83
2022/03/03 03:02:24;;;;;;;0.60;0.60;;;1.20;99.90;;;;;;5029312;28;20184;-84
2022/03/03 03:04:50;;;;;;;0.20;0.20;;;1.20;99.90;;;;;;5033068;28;20200;-84
2022/03/03 03:07:15;;;;;;;0.20;0.20;;;1.20;99.90;;;;;;5031319;28;20198;-83
2022/03/03 03:09:41;;;;;;;0.30;0.20;;;1.20;99.90;;;;;;5028012;28;20230;-84
2022/03/03 03:12:08;;;;;;;0.20;0.20;;;1.20;99.90;;;;;;5028189;28;20223;-83
2022/03/03 03:14:34;;;;;;;0.63;0.50;;;1.10;99.90;;;;;;5029861;28;20578;-84
2022/03/03 03:16:59;;;;;;;0.20;0.20;;;1.10;99.90;;;;;;5033381;28;20186;-84
2022/03/03 03:19:25;;;;;;;0.40;0.40;;;0.90;99.90;;;;;;5027760;28;20224;-83
2022/03/03 03:21:50;;;;;;;0.30;0.30;;;0.90;99.90;;;;;;5033905;28;20203;-84
2022/03/03 03:24:16;;;;;;;0.30;0.30;;;0.80;99.90;;;;;;5030891;28;20278;-83
2022/03/03 03:26:41;;;;;;;0.20;0.20;;;0.80;99.90;;;;;;5031741;28;20201;-84
2022/03/03 03:29:07;;;;;;;0.40;0.40;;;0.80;99.90;;;;;;5029125;28;20220;-84
2022/03/03 03:31:33;;;;;;;1.43;0.40;;;0.70;99.90;;;;;;5032319;28;20187;-84
2022/03/03 03:33:58;;;;;;;0.80;0.80;;;0.80;99.90;;;;;;5028184;28;20209;-83
2022/03/03 03:36:24;;;;;;;0.30;0.30;;;0.70;99.90;;;;;;5025550;28;20197;-83
2022/03/03 03:38:49;;;;;;;2.10;1.47;;;0.60;99.90;;;;;;5032707;28;20216;-84
2022/03/03 03:41:15;;;;;;;0.60;0.60;;;0.60;99.90;;;;;;5033240;28;20190;-83
2022/03/03 03:43:41;;;;;;;2.10;0.70;;;0.70;99.90;;;;;;5033511;28;20750;-84
2022/03/03 03:46:06;;;;;;;0.63;0.50;;;0.80;99.90;;;;;;5033545;28;20231;-84
2022/03/03 03:48:32;;;;;;;0.17;0.17;;;0.90;99.90;;;;;;5030020;28;20209;-84
2022/03/03 03:50:57;;;;;;;0.67;0.67;;;0.90;99.90;;;;;;5033846;28;20591;-84
2022/03/03 03:53:23;;;;;;;1.70;1.40;;;0.90;99.90;;;;;;5033853;28;20199;-84
2022/03/03 03:55:50;;;;;;;0.43;0.43;;;1.00;99.90;;;;;;5036843;28;20214;-83
2022/03/03 03:58:16;;;;;;;0.50;0.50;;;0.90;99.90;;;;;;5034571;28;20210;-84
2022/03/03 04:00:42;;;;;;;0.23;0.23;;;0.80;99.90;;;;;;5053800;28;20193;-84
2022/03/03 04:03:07;;;;;;;0.60;0.60;;;0.70;99.90;;;;;;5036343;28;20199;-83
2022/03/03 04:05:33;;;;;;;1.07;1.03;;;0.70;99.90;;;;;;5033935;28;20360;-83
2022/03/03 04:07:59;;;;;;;0.53;0.33;;;0.70;99.90;;;;;;5036263;28;20277;-84
2022/03/03 04:10:24;;;;;;;0.20;0.20;;;0.70;99.90;;;;;;5032268;28;20674;-84
2022/03/03 04:12:50;;;;;;;0.50;0.50;;;0.80;99.90;;;;;;5033347;28;20195;-83
2022/03/03 04:15:15;;;;;;;0.60;0.60;;;0.70;99.90;;;;;;5036954;28;20265;-84
2022/03/03 04:17:41;;;;;;;0.87;0.77;;;0.80;99.90;;;;;;5035779;28;20607;-84
2022/03/03 04:20:08;;;;;;;0.23;0.23;;;0.80;99.90;;;;;;5036251;28;20282;-83
2022/03/03 04:22:34;;;;;;;0.47;0.30;;;0.80;99.90;;;;;;5035457;28;20208;-83
2022/03/03 04:25:00;;;;;;;1.03;0.73;;;0.80;99.90;;;;;;5035345;28;20258;-83
2022/03/03 04:27:25;;;;;;;0.23;0.23;;;0.80;99.90;;;;;;5032597;28;20211;-83
2022/03/03 04:29:51;;;;;;;0.27;0.27;;;0.90;99.90;;;;;;5033265;28;20204;-84
2022/03/03 04:32:17;;;;;;;0.80;0.80;;;1.00;99.90;;;;;;5036815;28;20200;-84
2022/03/03 04:34:42;;;;;;;1.90;1.10;;;1.00;99.90;;;;;;5035969;28;20186;-83
2022/03/03 04:37:08;;;;;;;1.80;1.20;;;0.90;99.90;;;;;;5033545;28;20201;-84
2022/03/03 04:39:34;;;;;;;0.40;0.37;;;0.90;99.90;;;;;;5032397;28;20232;-84
2022/03/03 04:42:00;;;;;;;0.87;0.87;;;0.90;99.90;;;;;;5032828;28;20207;-83
2022/03/03 04:44:26;;;;;;;0.37;0.37;;;0.90;99.90;;;;;;5031261;28;20185;-83
2022/03/03 04:46:52;;;;;;;0.17;0.17;;;0.80;99.90;;;;;;5034345;28;20191;-84
2022/03/03 04:49:17;;;;;;;0.57;0.57;;;0.80;99.90;;;;;;5039517;28;20778;-83
2022/03/03 04:51:43;;;;;;;0.20;0.20;;;0.80;99.90;;;;;;5038003;28;20204;-84
2022/03/03 04:54:10;;;;;;;0.43;0.43;;;0.80;99.90;;;;;;5028925;28;20205;-84
2022/03/03 04:56:37;;;;;;;0.40;0.40;;;0.70;99.90;;;;;;5034311;28;20190;-83
2022/03/03 04:59:03;;;;;;;1.27;0.40;;;0.80;99.90;;;;;;5029641;28;20217;-84
2022/03/03 05:01:29;;;;;;;0.40;0.40;;;0.80;99.90;;;;;;5036115;28;20653;-83
2022/03/03 05:03:55;;;;;;;1.37;1.00;;;0.70;99.90;;;;;;5036159;28;20203;-84
2022/03/03 05:06:20;;;;;;;0.73;0.60;;;0.60;99.90;;;;;;5032198;28;20206;-83
2022/03/03 05:08:46;;;;;;;1.20;0.83;;;0.60;99.90;;;;;;5034536;28;20218;-85
2022/03/03 05:11:11;;;;;;;3.03;1.20;;;0.50;99.90;;;;;;5034707;28;20217;-83
2022/03/03 05:13:37;;;;;;;2.13;1.10;;;0.50;99.90;;;;;;5034832;28;20192;-84
2022/03/03 05:16:04;;;;;;;0.27;0.27;;;0.50;99.90;;;;;;5026729;28;20329;-83
2022/03/03 05:18:31;;;;;;;0.20;0.20;;;0.50;99.90;;;;;;5033203;28;20274;-84
2022/03/03 05:20:57;;;;;;;0.20;0.20;;;0.50;99.90;;;;;;5034460;28;20196;-83
2022/03/03 05:23:23;;;;;;;0.73;0.60;;;0.50;99.90;;;;;;5029935;28;20186;-83
2022/03/03 05:25:48;;;;;;;0.30;0.30;;;0.50;99.90;;;;;;5030193;28;20253;-83
2022/03/03 05:28:14;;;;;;;1.70;0.77;;;0.50;99.90;;;;;;5033490;28;20882;-83
2022/03/03 05:30:40;;;;;;;0.93;0.93;;;0.60;99.90;;;;;;5032371;28;20191;-83
2022/03/03 05:33:06;;;;;;;1.37;1.27;;;0.60;99.90;;;;;;5029861;28;20195;-83
2022/03/03 05:35:31;;;;;;;0.87;0.70;;;0.50;99.90;;;;;;5033525;28;20617;-83
2022/03/03 05:37:57;;;;;;;0.50;0.50;;;0.50;99.90;;;;;;5033039;28;20208;-83
2022/03/03 05:40:24;;;;;;;1.53;1.50;;;0.50;99.90;;;;;;5030355;28;20214;-84
2022/03/03 05:42:49;;;;;;;0.73;0.70;;;0.60;99.90;;;;;;5030705;28;20245;-84
2022/03/03 05:45:15;;;;;;;1.70;1.60;;;0.60;99.90;;;;;;5031141;28;20188;-85
2022/03/03 05:47:41;;;;;;;1.13;1.03;;;0.60;99.90;;;;;;5029892;28;20186;-84
2022/03/03 05:50:09;;;;;;;1.60;0.80;;;0.30;99.90;;;;;;5031941;28;20220;-84
2022/03/03 05:52:34;;;;;;;1.70;1.13;;;0.20;99.90;;;;;;5037989;28;20188;-84
2022/03/03 05:55:00;;;;;;;0.43;0.43;;;0.30;99.90;;;;;;5033760;28;20196;-84
2022/03/03 05:57:32;;;;;;;0.57;0.57;;;0.30;99.90;;;;;;5028480;28;20188;-84
2022/03/03 06:00:12;;;;;;;0.20;0.20;;;0.30;99.90;;;;;;5032847;28;20205;-83
2022/03/03 06:02:41;;;;;;;0.27;0.27;;;0.40;99.90;;;;;;5035234;28;20187;-84
2022/03/03 06:05:08;;;;;;;2.60;1.40;;;0.40;99.90;;;;;;5032733;28;20228;-83
2022/03/03 06:07:37;;;;;;;0.73;0.27;;;0.50;99.90;;;;;;5033757;28;20183;-83
2022/03/03 06:10:04;;;;;;;0.87;0.50;;;0.50;99.90;;;;;;5035756;28;20203;-84
2022/03/03 06:12:51;;;;;;;0.53;0.53;;;0.40;99.90;;;;;;5031760;28;20183;-83
2022/03/03 06:15:21;;;;;;;0.30;0.20;;;0.30;99.90;;;;;;5033488;28;20179;-83
2022/03/03 06:17:48;;;;;;;0.90;0.67;;;0.30;99.90;;;;;;5033056;28;20181;-83
2022/03/03 06:20:15;;;;;;;1.23;1.23;;;0.40;99.90;;;;;;5033182;28;20207;-85
2022/03/03 06:22:41;;;;;;;0.63;0.63;;;0.50;99.90;;;;;;5029835;28;20186;-85
2022/03/03 06:25:07;;;;;;;1.07;1.03;;;0.60;99.90;;;;;;5034026;28;20241;-83
2022/03/03 06:27:33;;;;;;;0.40;0.33;;;0.80;99.90;;;;;;5029468;28;20182;-84
2022/03/03 06:29:59;;;;;;;1.27;1.17;;;0.90;99.90;;;;;;5031760;28;20212;-84
2022/03/03 06:32:25;;;;;;;0.83;0.83;;;0.90;99.90;;;;;;5035246;28;20281;-84
2022/03/03 06:34:51;;;;;;;3.30;1.30;;;1.10;99.90;;;;;;5033066;28;20213;-84
2022/03/03 06:37:17;;;;;;;1.93;1.83;;;1.10;99.90;;;;;;5029208;28;20223;-83
2022/03/03 06:39:42;;;;;;;1.17;0.63;;;1.10;99.90;;;;;;5030718;28;20268;-83
2022/03/03 06:42:08;;;;;;;1.40;0.70;;;1.10;99.90;;;;;;5034816;28;20192;-84
2022/03/03 06:44:34;;;;;;;0.63;0.60;;;1.10;99.90;;;;;;5035167;28;20213;-84
2022/03/03 06:47:01;;;;;;;1.20;1.10;;;1.00;99.90;;;;;;5026594;28;20193;-84
2022/03/03 06:49:27;;;;;;;1.43;1.33;;;1.00;99.90;;;;;;5031900;28;20243;-84
2022/03/03 06:51:56;;;;;;;0.50;0.50;;;1.00;99.90;;;;;;5032255;28;20307;-83
2022/03/03 06:54:23;;;;;;;0.60;0.60;;;1.00;99.90;;;;;;5034478;28;20194;-84
2022/03/03 06:56:51;;;;;;;0.40;0.40;;;1.00;99.90;;;;;;5033773;28;20203;-84
2022/03/03 06:59:19;;;;;;;0.37;0.37;;;1.10;99.90;;;;;;5029771;28;20681;-84
2022/03/03 07:01:48;;;;;;;0.67;0.60;;;1.20;99.90;;;;;;5034701;28;20334;-84
2022/03/03 07:04:13;;;;;;;0.30;0.30;;;1.20;99.90;;;;;;5034821;28;20949;-83
2022/03/03 07:06:40;;;;;;;2.07;0.90;;;1.30;99.90;;;;;;5034132;28;20209;-84
2022/03/03 07:09:08;;;;;;;0.90;0.30;;;1.40;99.90;;;;;;5032644;28;20225;-84
2022/03/03 07:11:37;;;;;;;0.43;0.43;;;1.40;99.90;;;;;;5033316;28;20664;-82
2022/03/03 07:14:03;;;;;;;0.83;0.73;;;1.70;99.90;;;;;;5035495;28;20754;-81
2022/03/03 07:16:41;;;;;;;1.37;1.10;;;1.80;99.90;;;;;;5036391;28;20196;-82
2022/03/03 07:19:14;;;;;;;0.67;0.40;;;1.90;99.90;;;;;;5033042;28;20217;-81
2022/03/03 07:22:07;;;;;;;0.70;0.60;;;2.10;99.90;;;;;;5032589;28;20186;-81
2022/03/03 07:24:37;;;;;;;1.50;1.33;;;2.20;99.90;;;;;;5028577;28;20262;-82
2022/03/03 07:27:04;;;;;;;0.43;0.43;;;2.30;99.90;;;;;;5028277;28;20187;-83
2022/03/03 07:29:32;;;;;;;0.60;0.60;;;2.40;99.90;;;;;;5024836;28;20228;-81
2022/03/03 07:32:04;;;;;;;1.30;0.87;;;2.50;99.90;;;;;;5029968;28;20190;-82
2022/03/03 07:34:33;;;;;;;4.50;1.00;;;2.50;99.90;;;;;;5045888;28;20280;-81
2022/03/03 07:37:07;;;;;;;1.07;1.07;;;2.70;99.90;;;;;;5020511;28;20245;-85
2022/03/03 07:39:44;;;;;;;0.73;0.57;;;2.90;99.90;;;;;;5017076;28;21006;-85
2022/03/03 07:42:13;;;;;;;0.60;0.60;;;3.00;99.90;;;;;;5015651;28;20189;-85
2022/03/03 07:44:39;;;;;;;2.77;1.97;;;3.20;99.90;;;;;;5022238;28;20193;-85
2022/03/03 07:47:07;;;;;;;2.07;0.73;;;3.20;99.90;;;;;;5022132;28;20186;-85
2022/03/03 07:49:32;;;;;;;1.37;1.27;;;3.30;99.90;;;;;;5017869;28;20222;-85
2022/03/03 07:51:58;;;;;;;1.27;0.90;;;3.50;99.90;;;;;;5015216;28;21182;-85
2022/03/03 07:54:24;;;;;;;0.20;0.20;;;3.70;99.90;;;;;;5017985;28;20186;-85
2022/03/03 07:56:55;;;;;;;0.70;0.70;;;3.70;99.90;;;;;;5017561;28;21107;-86
2022/03/03 07:59:25;;;;;;;0.60;0.60;;;3.90;99.90;;;;;;5020200;28;20214;-85
2022/03/03 08:01:54;;;;;;;0.70;0.70;;;4.00;99.90;;;;;;5027688;28;20205;-84
2022/03/03 08:04:26;;;;;;;1.70;0.77;;;4.00;99.90;;;;;;5027756;28;20197;-84
2022/03/03 08:06:55;;;;;;;0.50;0.50;;;4.10;99.90;;;;;;5031389;28;20207;-83
2022/03/03 08:09:22;;;;;;;2.00;1.13;;;4.20;99.90;;;;;;5026869;28;20631;-83
2022/03/03 08:11:50;;;;;;;1.73;1.53;;;4.40;99.90;;;;;;5034055;28;20196;-83
2022/03/03 08:14:16;;;;;;;1.23;0.97;;;4.50;99.90;;;;;;5032255;28;20213;-84
2022/03/03 08:16:44;;;;;;;0.53;0.40;;;4.60;99.90;;;;;;5031349;28;20758;-81
2022/03/03 08:19:10;;;;;;;1.90;1.23;;;4.70;99.90;;;;;;5028672;28;20218;-83
2022/03/03 08:21:37;;;;;;;1.90;1.00;;;4.90;99.90;;;;;;5029592;28;20273;-84
2022/03/03 08:24:03;;;;;;;0.40;0.40;;;5.00;99.90;;;;;;5033433;28;20667;-83
2022/03/03 08:26:30;;;;;;;0.67;0.47;;;5.20;99.90;;;;;;5030994;28;20199;-84
2022/03/03 08:28:55;;;;;;;1.87;0.67;;;5.30;99.90;;;;;;5023501;28;20207;-84
2022/03/03 08:31:35;;;;;;;0.90;0.60;;;5.50;99.90;;;;;;5022224;28;20194;-84
2022/03/03 08:34:10;;;;;;;1.00;0.93;;;5.70;99.90;;;;;;5021828;28;20193;-84
2022/03/03 08:36:54;;;;;;;0.23;0.23;;;5.90;99.90;;;;;;5020973;28;20189;-84
2022/03/03 08:39:26;;;;;;;0.63;0.63;;;6.00;99.90;;;;;;5029046;28;20264;-84
2022/03/03 08:41:58;;;;;;;1.23;1.20;;;5.50;99.90;;;;;;5031421;28;20188;-84
2022/03/03 08:44:34;;;;;;;2.20;1.07;;;5.40;99.90;;;;;;5025895;28;20186;-83
2022/03/03 08:47:02;;;;;;;1.20;0.77;;;5.70;99.90;;;;;;5031068;28;20239;-83
2022/03/03 08:49:33;;;;;;;1.17;1.07;;;6.10;99.90;;;;;;5026650;28;20214;-83
2022/03/03 08:52:00;;;;;;;1.47;1.37;;;6.20;99.90;;;;;;5034012;28;20263;-83
2022/03/03 08:54:25;;;;;;;0.73;0.73;;;6.50;99.90;;;;;;5026862;28;20206;-85
2022/03/03 08:56:51;;;;;;;2.37;1.10;;;6.90;99.90;;;;;;5023709;28;20258;-83
2022/03/03 08:59:16;;;;;;;2.70;0.77;;;7.00;99.90;;;;;;5028978;28;20309;-83
2022/03/03 09:01:42;;;;;;;0.73;0.73;;;7.20;99.90;;;;;;5025963;28;20191;-84
2022/03/03 09:04:08;;;;;;;0.77;0.77;;;7.40;99.90;;;;;;5029396;28;20673;-84
2022/03/03 09:06:33;;;;;;;0.60;0.60;;;7.50;99.90;;;;;;5027357;28;20211;-82
2022/03/03 09:08:59;;;;;;;2.23;1.03;;;7.70;99.90;;;;;;5051282;28;20230;-84
2022/03/03 09:11:25;;;;;;;0.40;0.40;;;7.40;99.90;;;;;;5034513;28;20254;-82
2022/03/03 09:13:51;;;;;;;3.13;1.80;;;7.50;99.90;;;;;;5030178;28;20205;-82
2022/03/03 09:16:17;;;;;;;1.07;0.63;;;7.60;99.90;;;;;;5025150;28;20198;-82
2022/03/03 09:18:47;;;;;;;1.03;1.03;;;7.80;99.90;;;;;;5025427;28;20964;-82
2022/03/03 09:21:12;;;;;;;2.47;1.93;;;8.00;99.90;;;;;;5031089;28;20190;-82
2022/03/03 09:23:38;;;;;;;0.60;0.60;;;8.20;99.90;;;;;;5033451;28;20198;-82
2022/03/03 09:26:04;;;;;;;1.07;0.93;;;8.40;99.90;;;;;;5028407;28;20206;-82
2022/03/03 09:28:30;;;;;;;0.77;0.57;;;8.30;99.90;;;;;;5022989;28;20306;-83
2022/03/03 09:30:56;;;;;;;1.20;0.50;;;8.60;99.90;;;;;;5028124;28;20187;-82
2022/03/03 09:33:23;;;;;;;1.03;1.03;;;8.70;99.90;;;;;;5028322;28;20212;-82
2022/03/03 09:35:49;;;;;;;0.70;0.70;;;8.80;99.90;;;;;;5025400;28;20229;-83
2022/03/03 09:38:15;;;;;;;2.17;1.23;;;8.90;99.90;;;;;;5028723;28;20217;-82
2022/03/03 09:40:41;;;;;;;0.80;0.80;;;9.00;99.90;;;;;;5022681;28;20198;-82
2022/03/03 09:43:08;;;;;;;3.43;1.00;;;8.90;99.90;;;;;;5024368;28;20551;-82
2022/03/03 09:45:36;;;;;;;0.57;0.57;;;9.00;99.90;;;;;;5021253;28;20188;-82
2022/03/03 09:48:05;;;;;;;1.33;1.13;;;9.30;99.90;;;;;;5024280;28;20231;-82
2022/03/03 09:50:32;;;;;;;1.87;0.90;;;8.80;99.90;;;;;;5022195;28;20221;-82
2022/03/03 09:52:57;;;;;;;0.60;0.60;;;8.40;99.90;;;;;;5026682;28;20311;-82
2022/03/03 09:55:23;;;;;;;1.17;1.17;;;8.70;99.90;;;;;;5017488;28;20193;-82
2022/03/03 09:57:50;;;;;;;0.47;0.47;;;9.00;99.90;;;;;;5021725;28;20232;-82
2022/03/03 10:00:17;;;;;;;0.57;0.57;;;9.20;99.90;;;;;;5020819;28;20624;-85
2022/03/03 10:03:09;;;;;;;1.87;0.70;;;9.40;99.90;;;;;;5019501;28;20777;-85
2022/03/03 10:05:47;;;;;;;0.83;0.83;;;9.70;99.90;;;;;;5026431;28;20198;-82
2022/03/03 10:08:18;;;;;;;1.10;1.03;;;9.60;99.90;;;;;;5030237;28;20188;-82
2022/03/03 10:10:49;;;;;;;0.93;0.77;;;9.20;99.90;;;;;;5034597;28;20264;-82
2022/03/03 10:13:17;;;;;;;1.43;0.77;;;9.50;99.90;;;;;;5031789;28;20197;-82
2022/03/03 10:15:57;;;;;;;1.47;1.37;;;9.70;99.90;;;;;;5032076;28;20186;-82
2022/03/03 10:18:24;;;;;;;0.90;0.67;;;9.90;99.90;;;;;;5031560;28;20224;-81
2022/03/03 10:20:57;;;;;;;1.00;1.00;;;10.10;99.90;;;;;;5033155;28;20243;-81
2022/03/03 10:23:24;;;;;;;0.50;0.40;;;10.30;99.90;;;;;;5050807;28;20185;-81
2022/03/03 10:25:52;;;;;;;0.57;0.57;;;10.40;99.90;;;;;;5033506;28;20175;-81
2022/03/03 10:28:20;;;;;;;1.53;1.13;;;10.60;99.90;;;;;;5033903;28;20184;-81
2022/03/03 10:30:58;;;;;;;0.87;0.87;;;10.60;99.90;;;;;;5035976;28;20199;-81
2022/03/03 10:33:29;;;;;;;2.20;1.23;;;10.60;99.90;;;;;;5034787;28;20276;-82
2022/03/03 10:36:08;;;;;;;1.37;1.23;;;10.70;99.90;;;;;;5035362;28;20228;-81
2022/03/03 10:38:42;;;;;;;1.23;0.80;;;10.80;99.90;;;;;;5034540;28;20213;-81
2022/03/03 10:41:08;;;;;;;0.80;0.80;;;10.90;99.90;;;;;;5031872;28;20182;-81
2022/03/03 10:44:01;;;;;;;3.13;1.80;;;10.40;99.90;;;;;;5033658;28;20182;-81
2022/03/03 10:46:28;;;;;;;0.57;0.53;;;10.40;99.90;;;;;;5030306;28;20248;-81
2022/03/03 10:48:54;;;;;;;1.10;1.00;;;10.60;99.90;;;;;;5033795;28;20326;-82
2022/03/03 10:51:24;;;;;;;1.10;1.00;;;10.70;99.90;;;;;;5034355;28;20218;-81
2022/03/03 10:53:50;;;;;;;1.73;1.23;;;10.10;99.90;;;;;;5027932;28;20185;-82
2022/03/03 10:56:17;;;;;;;1.23;1.13;;;9.80;99.90;;;;;;5034485;28;20199;-82
2022/03/03 10:59:03;;;;;;;0.63;0.50;;;9.80;99.90;;;;;;5034724;28;20225;-82
2022/03/03 11:01:30;;;;;;;1.13;0.60;;;9.50;99.90;;;;;;5033580;28;20182;-81
2022/03/03 11:03:56;;;;;;;1.70;1.50;;;9.70;99.90;;;;;;5029388;28;20186;-82
2022/03/03 11:06:30;;;;;;;2.73;1.70;;;9.70;99.90;;;;;;5031107;28;20265;-82
2022/03/03 11:08:57;;;;;;;0.50;0.50;;;9.90;99.90;;;;;;5034191;28;20213;-82
2022/03/03 11:11:24;;;;;;;0.93;0.93;;;10.40;99.90;;;;;;5033411;28;20297;-82
2022/03/03 11:13:51;;;;;;;1.43;0.97;;;10.60;99.90;;;;;;5033587;28;20301;-81
2022/03/03 11:16:22;;;;;;;1.33;0.73;;;11.00;99.90;;;;;;5032843;28;20182;-81
2022/03/03 11:18:48;;;;;;;1.90;0.60;;;10.60;99.90;;;;;;5031788;28;20218;-82
2022/03/03 11:21:16;;;;;;;1.53;1.43;;;10.90;99.90;;;;;;5028573;28;20683;-81
2022/03/03 11:23:44;;;;;;;1.90;0.80;;;11.30;99.90;;;;;;5032444;28;20197;-82
2022/03/03 11:26:20;;;;;;;2.47;1.00;;;10.50;99.90;;;;;;5032972;28;20193;-82
2022/03/03 11:28:57;;;;;;;0.90;0.70;;;10.50;99.90;;;;;;5025285;28;20206;-81
2022/03/03 11:31:27;;;;;;;0.83;0.83;;;11.00;99.90;;;;;;5049122;28;20559;-81
2022/03/03 11:34:31;;;;;;;1.37;1.27;;;11.30;99.90;;;;;;5032015;28;20186;-82
2022/03/03 11:37:06;;;;;;;3.10;0.67;;;10.90;99.90;;;;;;5028660;28;20293;-81
2022/03/03 11:39:38;;;;;;;2.57;2.40;;;10.60;99.90;;;;;;5032951;28;20236;-81
2022/03/03 11:42:20;;;;;;;2.33;0.80;;;10.90;99.90;;;;;;5030418;28;20194;-82
2022/03/03 11:44:46;;;;;;;0.63;0.63;;;10.80;99.90;;;;;;5033063;28;20184;-82
2022/03/03 11:47:20;;;;;;;0.80;0.80;;;11.30;99.90;;;;;;5033296;28;20186;-81
2022/03/03 11:50:04;;;;;;;0.20;0.20;;;11.60;99.90;;;;;;5031927;28;20232;-81
2022/03/03 11:52:30;;;;;;;1.60;1.43;;;11.80;99.90;;;;;;5029192;28;20301;-81
2022/03/03 11:54:59;;;;;;;0.73;0.73;;;11.10;99.90;;;;;;5029963;28;20213;-82
2022/03/03 11:57:32;;;;;;;0.63;0.60;;;11.10;99.90;;;;;;5029205;28;20224;-82
2022/03/03 12:00:05;;;;;;;0.83;0.83;;;11.30;99.90;;;;;;5031155;28;21154;-82
2022/03/03 12:02:32;;;;;;;0.90;0.90;;;10.90;99.90;;;;;;5025260;28;20183;-81
2022/03/03 12:05:23;;;;;;;0.30;0.30;;;11.00;99.90;;;;;;5026597;28;20271;-82
2022/03/03 12:07:49;;;;;;;0.67;0.67;;;11.10;99.90;;;;;;5030012;28;20194;-82
2022/03/03 12:10:20;;;;;;;1.57;1.47;;;11.00;99.90;;;;;;5034514;28;20207;-82
2022/03/03 12:12:46;;;;;;;1.23;1.00;;;11.00;99.90;;;;;;5027538;28;20190;-82
2022/03/03 12:15:12;;;;;;;0.60;0.60;;;11.20;99.90;;;;;;5034060;28;20278;-82
2022/03/03 12:17:42;;;;;;;4.13;0.60;;;11.60;99.90;;;;;;5036844;28;20218;-82
2022/03/03 12:20:34;;;;;;;0.63;0.63;;;11.70;99.90;;;;;;5033853;28;20234;-82
2022/03/03 12:23:16;;;;;;;2.07;0.93;;;12.00;99.90;;;;;;5035663;28;20491;-82
2022/03/03 12:25:47;;;;;;;0.63;0.47;;;11.50;99.90;;;;;;5038219;28;20170;-83
2022/03/03 12:28:20;;;;;;;1.20;1.13;;;11.60;99.90;;;;;;5036338;28;20567;-82
2022/03/03 12:30:47;;;;;;;0.87;0.73;;;12.00;99.90;;;;;;5035334;28;20186;-82
2022/03/03 12:33:32;;;;;;;1.10;1.07;;;12.10;99.90;;;;;;5041205;28;20193;-82
2022/03/03 12:36:00;;;;;;;2.97;1.33;;;12.40;99.90;;;;;;5040332;28;20723;-82
2022/03/03 12:38:27;;;;;;;0.63;0.63;;;12.40;99.90;;;;;;5035139;28;20241;-82
2022/03/03 12:40:54;;;;;;;0.80;0.77;;;12.40;99.90;;;;;;5040238;28;20588;-82
2022/03/03 12:43:21;;;;;;;1.70;1.30;;;12.00;99.90;;;;;;5038847;28;20604;-82
2022/03/03 12:45:48;;;;;;;2.10;2.00;;;11.80;99.90;;;;;;5033282;28;20306;-82
2022/03/03 12:48:26;;;;;;;1.53;1.43;;;11.40;99.90;;;;;;5034243;28;20197;-82
2022/03/03 12:50:57;;;;;;;0.80;0.80;;;11.90;99.90;;;;;;5036056;28;20190;-83
2022/03/03 12:53:23;;;;;;;0.43;0.43;;;11.70;99.90;;;;;;5034649;28;20577;-82
2022/03/03 12:55:49;;;;;;;0.53;0.53;;;11.60;99.90;;;;;;5027939;28;20182;-82
2022/03/03 12:58:17;;;;;;;0.47;0.43;;;11.20;99.90;;;;;;5031222;28;20214;-82
2022/03/03 13:00:47;;;;;;;0.27;0.27;;;11.20;99.90;;;;;;5032936;28;20579;-82
2022/03/03 13:03:15;;;;;;;1.20;0.80;;;11.20;99.90;;;;;;5031236;28;20217;-82